Time;durP1;ratioP1;P1;durP2;ratioP2;P2;SDS_P1;SDS_P2;PMS_P1;PMS_P2;Temp;Humidity;BMP_temperature;BMP_pressure;BME280_temperature;BME280_humidity;BME280_pressure;Samples;Min_cycle;Max_cycle;Signal;HPM_P1;HPM_P2
2023/12/05 00:00:02;;;;;;;7.10;6.47;;;20.70;54.70;;;;;;4992114;28;20955;-78
2023/12/05 00:02:41;;;;;;;7.30;6.60;;;20.70;54.70;;;;;;4987842;28;20561;-78
2023/12/05 00:05:10;;;;;;;6.87;6.20;;;20.70;54.80;;;;;;4989661;28;20446;-80
2023/12/05 00:07:39;;;;;;;7.77;6.87;;;20.70;54.80;;;;;;4991518;28;20468;-78
2023/12/05 00:10:08;;;;;;;6.43;5.93;;;20.60;54.80;;;;;;4990714;28;20458;-78
2023/12/05 00:12:36;;;;;;;7.13;6.33;;;20.70;54.90;;;;;;4991434;28;20984;-78
2023/12/05 00:15:05;;;;;;;6.80;6.10;;;20.60;54.90;;;;;;4991320;28;20458;-78
2023/12/05 00:17:34;;;;;;;6.20;5.60;;;20.60;55.00;;;;;;4988905;28;20830;-78
2023/12/05 00:20:04;;;;;;;7.03;6.33;;;20.60;55.00;;;;;;4992500;28;20484;-78
2023/12/05 00:22:32;;;;;;;6.73;5.90;;;20.60;55.00;;;;;;4990480;28;20482;-78
2023/12/05 00:25:01;;;;;;;6.60;6.00;;;20.60;55.00;;;;;;4990556;28;20450;-80
2023/12/05 00:27:29;;;;;;;6.33;5.73;;;20.60;55.10;;;;;;4991405;28;20454;-78
2023/12/05 00:29:57;;;;;;;6.70;6.10;;;20.60;55.10;;;;;;4991383;28;20468;-79
2023/12/05 00:32:25;;;;;;;6.47;5.80;;;20.50;55.10;;;;;;4990083;28;20467;-78
2023/12/05 00:34:54;;;;;;;6.27;5.67;;;20.50;55.10;;;;;;4990293;28;20841;-78
2023/12/05 00:37:23;;;;;;;7.40;6.73;;;20.50;55.20;;;;;;4987031;28;20477;-80
2023/12/05 00:39:51;;;;;;;7.40;6.30;;;20.50;55.20;;;;;;4990028;28;20466;-81
2023/12/05 00:42:20;;;;;;;6.70;6.10;;;20.50;55.20;;;;;;4990946;28;20460;-77
2023/12/05 00:44:49;;;;;;;6.23;5.70;;;20.50;55.20;;;;;;4990185;28;20458;-78
2023/12/05 00:47:18;;;;;;;6.67;5.33;;;20.50;55.20;;;;;;4987429;28;20463;-78
2023/12/05 00:49:46;;;;;;;9.27;5.70;;;20.40;55.20;;;;;;4991696;28;20934;-78
2023/12/05 00:52:14;;;;;;;6.63;5.70;;;20.40;55.30;;;;;;4990436;28;20497;-77
2023/12/05 00:54:44;;;;;;;7.03;6.33;;;20.40;55.30;;;;;;4996788;28;20459;-81
2023/12/05 00:57:12;;;;;;;7.03;6.43;;;20.40;55.30;;;;;;4988111;28;20467;-79
2023/12/05 00:59:41;;;;;;;6.53;5.93;;;20.40;55.30;;;;;;4990700;28;20469;-77
2023/12/05 01:02:09;;;;;;;6.17;5.60;;;20.40;55.30;;;;;;4988931;28;20463;-78
2023/12/05 01:04:38;;;;;;;6.67;5.97;;;20.40;55.40;;;;;;4990376;28;20493;-78
2023/12/05 01:07:06;;;;;;;7.37;6.70;;;20.40;55.40;;;;;;4989515;28;20497;-78
2023/12/05 01:09:34;;;;;;;6.63;5.70;;;20.40;55.40;;;;;;4990726;28;20524;-80
2023/12/05 01:12:05;;;;;;;5.90;5.33;;;20.40;55.40;;;;;;4990991;28;20481;-78
2023/12/05 01:14:33;;;;;;;6.47;5.70;;;20.40;55.40;;;;;;4989639;28;20508;-78
2023/12/05 01:17:02;;;;;;;6.83;5.67;;;20.30;55.40;;;;;;4989105;28;20476;-78
2023/12/05 01:19:30;;;;;;;6.57;6.00;;;20.30;55.40;;;;;;4987718;28;20535;-78
2023/12/05 01:21:58;;;;;;;7.53;6.10;;;20.30;55.40;;;;;;4988454;28;20976;-78
2023/12/05 01:24:27;;;;;;;6.60;6.00;;;20.30;55.40;;;;;;4988230;28;21002;-78
2023/12/05 01:26:55;;;;;;;6.37;5.50;;;20.30;55.40;;;;;;4989171;28;20569;-77
2023/12/05 01:29:25;;;;;;;5.87;5.33;;;20.30;55.40;;;;;;4990341;28;20458;-77
2023/12/05 01:31:53;;;;;;;6.67;6.07;;;20.30;55.40;;;;;;4987814;28;20525;-78
2023/12/05 01:34:21;;;;;;;6.10;5.60;;;20.30;55.40;;;;;;4984134;28;20462;-79
2023/12/05 01:36:50;;;;;;;7.27;6.57;;;20.30;55.40;;;;;;4982169;28;20470;-80
2023/12/05 01:39:18;;;;;;;6.50;6.00;;;20.30;55.30;;;;;;5000060;28;20533;-79
2023/12/05 01:41:46;;;;;;;5.90;5.40;;;20.30;55.30;;;;;;4988933;28;20458;-77
2023/12/05 01:44:14;;;;;;;5.83;5.37;;;20.30;55.30;;;;;;4990207;28;20513;-77
2023/12/05 01:46:46;;;;;;;6.30;5.80;;;20.30;55.30;;;;;;4988787;28;20522;-81
2023/12/05 01:49:14;;;;;;;6.00;5.40;;;20.30;55.30;;;;;;4989302;28;20458;-77
2023/12/05 01:51:54;;;;;;;6.63;6.03;;;20.30;55.30;;;;;;4990022;28;20447;-83
2023/12/05 01:54:22;;;;;;;6.83;6.13;;;20.30;55.30;;;;;;4999483;28;20479;-78
2023/12/05 01:56:50;;;;;;;6.03;5.53;;;20.30;55.20;;;;;;4988354;28;20462;-78
2023/12/05 01:59:19;;;;;;;5.87;5.40;;;20.30;55.20;;;;;;4992032;28;20462;-77
2023/12/05 02:01:50;;;;;;;5.73;5.23;;;20.30;55.30;;;;;;4992752;28;20458;-77
2023/12/05 02:04:19;;;;;;;6.50;5.90;;;20.30;55.30;;;;;;4992528;28;20501;-77
2023/12/05 02:06:48;;;;;;;6.77;6.17;;;20.30;55.30;;;;;;4993754;28;20495;-77
2023/12/05 02:09:17;;;;;;;6.90;6.30;;;20.30;55.30;;;;;;4993580;28;20454;-77
2023/12/05 02:11:47;;;;;;;5.77;5.33;;;20.30;55.30;;;;;;4993262;28;20454;-77
2023/12/05 02:14:19;;;;;;;6.43;5.93;;;20.30;55.30;;;;;;4993492;28;21035;-77
2023/12/05 02:16:58;;;;;;;7.70;7.00;;;20.30;55.30;;;;;;4992582;28;20458;-78
2023/12/05 02:19:45;;;;;;;6.33;5.80;;;20.20;55.30;;;;;;4994167;28;20462;-78
2023/12/05 02:22:28;;;;;;;6.90;6.20;;;20.20;55.30;;;;;;4992829;28;20500;-80
2023/12/05 02:25:07;;;;;;;5.20;4.80;;;20.20;55.30;;;;;;4991660;28;20487;-77
2023/12/05 02:27:39;;;;;;;6.73;6.13;;;20.20;55.40;;;;;;4992529;28;20458;-78
2023/12/05 02:30:09;;;;;;;6.13;5.53;;;20.20;55.40;;;;;;4990919;28;20457;-77
2023/12/05 02:32:38;;;;;;;6.00;5.50;;;20.20;55.40;;;;;;4991440;28;20454;-77
2023/12/05 02:35:07;;;;;;;6.20;5.50;;;20.10;55.40;;;;;;4992399;28;20465;-83
2023/12/05 02:37:43;;;;;;;5.57;5.13;;;20.10;55.40;;;;;;4994179;28;20469;-77
2023/12/05 02:40:17;;;;;;;6.60;6.00;;;20.10;55.40;;;;;;4992273;28;20472;-77
2023/12/05 02:42:50;;;;;;;5.80;5.30;;;20.10;55.40;;;;;;4992651;28;20856;-78
2023/12/05 02:45:21;;;;;;;6.47;5.97;;;20.10;55.40;;;;;;4990987;28;20479;-80
2023/12/05 02:47:50;;;;;;;6.03;5.20;;;20.10;55.40;;;;;;4992153;28;20958;-77
2023/12/05 02:50:19;;;;;;;6.00;5.57;;;20.10;55.40;;;;;;4993147;28;20465;-77
2023/12/05 02:52:47;;;;;;;6.40;5.80;;;20.10;55.40;;;;;;4984642;28;20450;-77
2023/12/05 02:55:15;;;;;;;6.00;5.50;;;20.10;55.40;;;;;;4993404;28;20462;-78
2023/12/05 02:57:44;;;;;;;6.30;5.73;;;20.10;55.40;;;;;;4992394;28;20466;-80
2023/12/05 03:00:15;;;;;;;5.83;5.43;;;20.10;55.40;;;;;;4990406;28;20804;-78
2023/12/05 03:02:43;;;;;;;6.00;5.40;;;20.10;55.40;;;;;;4990499;28;20482;-78
2023/12/05 03:05:12;;;;;;;5.80;5.30;;;20.00;55.40;;;;;;4990922;28;20474;-77
2023/12/05 03:07:40;;;;;;;6.03;5.63;;;20.00;55.40;;;;;;4992830;28;21080;-80
2023/12/05 03:10:09;;;;;;;6.30;5.70;;;20.00;55.40;;;;;;4990726;28;20457;-77
2023/12/05 03:12:37;;;;;;;6.33;5.57;;;20.00;55.50;;;;;;4992674;28;20461;-78
2023/12/05 03:15:06;;;;;;;6.33;5.80;;;20.00;55.50;;;;;;4991595;28;21065;-77
2023/12/05 03:17:37;;;;;;;6.33;5.80;;;20.00;55.50;;;;;;4990943;28;20548;-80
2023/12/05 03:20:07;;;;;;;6.00;5.37;;;20.00;55.50;;;;;;4989650;28;20478;-77
2023/12/05 03:22:35;;;;;;;5.90;5.40;;;20.00;55.50;;;;;;4991496;28;20473;-78
2023/12/05 03:25:04;;;;;;;6.47;5.87;;;20.00;55.50;;;;;;4992188;28;20500;-77
2023/12/05 03:27:32;;;;;;;5.80;5.10;;;20.00;55.60;;;;;;4990886;28;20469;-80
2023/12/05 03:30:01;;;;;;;5.73;5.33;;;20.00;55.60;;;;;;4989567;28;20874;-77
2023/12/05 03:32:29;;;;;;;5.60;5.17;;;20.00;55.50;;;;;;4990824;28;20505;-79
2023/12/05 03:34:59;;;;;;;5.97;5.47;;;20.00;55.50;;;;;;4992612;28;20564;-77
2023/12/05 03:37:27;;;;;;;5.90;5.40;;;20.00;55.50;;;;;;4991855;28;20458;-77
2023/12/05 03:39:56;;;;;;;5.30;4.80;;;20.00;55.60;;;;;;4990399;28;20450;-79
2023/12/05 03:42:24;;;;;;;6.30;5.53;;;20.00;55.50;;;;;;4986107;28;20492;-77
2023/12/05 03:44:53;;;;;;;6.50;5.97;;;19.90;55.60;;;;;;4991970;28;20470;-77
2023/12/05 03:47:21;;;;;;;6.10;5.60;;;19.90;55.50;;;;;;4991615;28;20461;-77
2023/12/05 03:49:49;;;;;;;5.63;5.13;;;19.90;55.50;;;;;;4992213;28;20466;-77
2023/12/05 03:52:19;;;;;;;6.40;5.80;;;19.90;55.50;;;;;;4990167;28;20853;-77
2023/12/05 03:54:47;;;;;;;6.30;5.80;;;19.90;55.50;;;;;;4995794;28;20450;-79
2023/12/05 03:57:15;;;;;;;6.30;5.70;;;19.90;55.50;;;;;;4986697;28;21060;-77
2023/12/05 03:59:44;;;;;;;6.13;5.67;;;19.90;55.50;;;;;;4990577;28;20457;-77
2023/12/05 04:02:13;;;;;;;5.03;4.63;;;19.90;55.60;;;;;;4990940;28;20464;-78
2023/12/05 04:04:41;;;;;;;6.60;6.10;;;19.90;55.50;;;;;;4991118;28;20572;-79
2023/12/05 04:07:09;;;;;;;5.60;5.10;;;19.90;55.50;;;;;;4989401;28;20548;-80
2023/12/05 04:09:38;;;;;;;6.10;5.70;;;19.90;55.60;;;;;;4987415;28;20997;-77
2023/12/05 04:12:07;;;;;;;5.60;5.17;;;19.90;55.50;;;;;;4991227;28;20466;-77
2023/12/05 04:14:35;;;;;;;6.20;5.60;;;19.80;55.60;;;;;;4990618;28;20878;-80
2023/12/05 04:17:04;;;;;;;7.73;6.00;;;19.80;55.60;;;;;;4990856;28;21036;-78
2023/12/05 04:19:32;;;;;;;6.17;5.67;;;19.80;55.60;;;;;;4990485;28;20524;-77
2023/12/05 04:22:00;;;;;;;5.60;5.20;;;19.80;55.60;;;;;;4992733;28;20481;-78
2023/12/05 04:24:29;;;;;;;6.53;5.93;;;19.80;55.60;;;;;;4992271;28;20474;-77
2023/12/05 04:26:58;;;;;;;5.53;5.07;;;19.80;55.60;;;;;;4989181;28;21008;-78
2023/12/05 04:29:27;;;;;;;5.87;5.37;;;19.80;55.70;;;;;;4990729;28;20468;-77
2023/12/05 04:31:55;;;;;;;5.70;5.23;;;19.80;55.60;;;;;;4989644;28;20576;-78
2023/12/05 04:34:24;;;;;;;5.60;5.20;;;19.80;55.70;;;;;;4991248;28;20470;-77
2023/12/05 04:36:52;;;;;;;5.40;5.00;;;19.80;55.60;;;;;;4991150;28;20450;-77
2023/12/05 04:39:20;;;;;;;5.73;5.23;;;19.80;55.70;;;;;;4991110;28;20461;-78
2023/12/05 04:41:49;;;;;;;6.10;5.60;;;19.70;55.60;;;;;;4987630;28;20500;-78
2023/12/05 04:44:18;;;;;;;5.80;5.20;;;19.70;55.60;;;;;;4990136;28;20465;-77
2023/12/05 04:46:46;;;;;;;4.87;4.47;;;19.70;55.70;;;;;;4986689;28;20477;-78
2023/12/05 04:49:15;;;;;;;6.10;5.50;;;19.70;55.70;;;;;;4982654;28;20528;-80
2023/12/05 04:51:43;;;;;;;6.20;5.60;;;19.70;55.60;;;;;;4986818;28;20458;-78
2023/12/05 04:54:12;;;;;;;5.50;5.00;;;19.70;55.60;;;;;;4990391;28;20517;-77
2023/12/05 04:56:40;;;;;;;6.10;5.70;;;19.70;55.60;;;;;;4991810;28;20462;-79
2023/12/05 04:59:08;;;;;;;6.37;5.70;;;19.70;55.50;;;;;;4990567;28;20458;-81
2023/12/05 05:01:38;;;;;;;5.50;5.00;;;19.70;55.50;;;;;;4984051;28;20457;-77
2023/12/05 05:04:06;;;;;;;5.63;5.13;;;19.70;55.50;;;;;;4991612;28;20498;-77
2023/12/05 05:06:34;;;;;;;6.63;5.93;;;19.70;55.50;;;;;;4987359;28;20483;-77
2023/12/05 05:09:03;;;;;;;6.03;5.53;;;19.70;55.50;;;;;;4980953;28;20466;-80
2023/12/05 05:11:32;;;;;;;6.10;5.60;;;19.70;55.50;;;;;;4990331;28;20524;-78
2023/12/05 05:14:00;;;;;;;6.10;5.60;;;19.80;55.40;;;;;;4985439;28;20491;-80
2023/12/05 05:16:30;;;;;;;5.93;5.43;;;19.80;55.40;;;;;;4986072;28;20529;-80
2023/12/05 05:19:00;;;;;;;5.60;5.10;;;19.80;55.30;;;;;;4987106;28;20455;-78
2023/12/05 05:21:28;;;;;;;6.40;5.90;;;19.90;55.20;;;;;;4984867;28;20577;-77
2023/12/05 05:23:57;;;;;;;5.40;4.60;;;19.90;55.10;;;;;;5001368;28;20466;-82
2023/12/05 05:26:25;;;;;;;6.57;5.97;;;19.90;55.10;;;;;;4990561;28;21011;-77
2023/12/05 05:28:53;;;;;;;6.30;5.70;;;20.00;55.00;;;;;;5000870;28;20868;-78
2023/12/05 05:31:22;;;;;;;6.23;5.47;;;20.00;54.80;;;;;;4988705;28;20457;-77
2023/12/05 05:33:50;;;;;;;6.73;6.20;;;20.10;54.60;;;;;;4997268;28;20516;-80
2023/12/05 05:36:20;;;;;;;5.63;5.23;;;20.10;54.60;;;;;;4994214;28;20452;-77
2023/12/05 05:38:48;;;;;;;6.40;5.80;;;20.10;54.50;;;;;;4989957;28;20465;-77
2023/12/05 05:41:16;;;;;;;6.13;5.63;;;20.20;54.60;;;;;;4998270;28;20804;-80
2023/12/05 05:43:44;;;;;;;4.73;4.43;;;20.20;54.70;;;;;;4994798;28;20458;-80
2023/12/05 05:46:13;;;;;;;5.37;4.87;;;20.30;54.80;;;;;;4994212;28;20473;-77
2023/12/05 05:48:41;;;;;;;6.47;5.57;;;20.30;54.80;;;;;;4998781;28;20459;-80
2023/12/05 05:51:10;;;;;;;5.77;5.30;;;20.30;54.90;;;;;;4990424;28;20479;-77
2023/12/05 05:53:39;;;;;;;6.17;5.57;;;20.40;54.90;;;;;;4993970;28;20950;-79
2023/12/05 05:56:08;;;;;;;5.30;4.80;;;20.40;54.90;;;;;;4988096;28;20557;-79
2023/12/05 05:58:37;;;;;;;8.53;5.80;;;20.50;55.00;;;;;;4993444;28;20520;-78
2023/12/05 06:01:05;;;;;;;7.93;5.70;;;20.50;54.70;;;;;;4988389;28;20491;-81
2023/12/05 06:03:34;;;;;;;6.20;5.60;;;20.60;54.10;;;;;;4994375;28;20494;-79
2023/12/05 06:06:03;;;;;;;6.80;6.20;;;20.70;54.40;;;;;;4989403;28;20478;-82
2023/12/05 06:08:32;;;;;;;5.90;5.40;;;20.70;54.90;;;;;;4985356;28;20455;-79
2023/12/05 06:11:01;;;;;;;5.40;4.90;;;20.70;54.90;;;;;;4995221;28;20471;-82
2023/12/05 06:13:30;;;;;;;6.20;5.70;;;20.70;54.90;;;;;;5001150;28;20453;-79
2023/12/05 06:15:58;;;;;;;5.70;5.20;;;20.80;54.60;;;;;;4990172;28;20462;-79
2023/12/05 06:18:26;;;;;;;5.43;5.03;;;20.80;54.70;;;;;;4994489;28;20466;-84
2023/12/05 06:20:56;;;;;;;6.50;5.93;;;20.80;54.70;;;;;;4986401;28;20465;-80
2023/12/05 06:23:25;;;;;;;6.70;4.40;;;20.80;54.70;;;;;;4981116;28;20465;-79
2023/12/05 06:25:54;;;;;;;6.03;5.53;;;20.80;54.70;;;;;;4985272;28;20510;-80
2023/12/05 06:28:23;;;;;;;5.67;5.20;;;20.90;54.90;;;;;;4982182;28;20541;-79
2023/12/05 06:30:52;;;;;;;5.67;5.17;;;20.90;54.70;;;;;;4981850;28;20581;-78
2023/12/05 06:33:20;;;;;;;6.57;5.53;;;20.90;54.70;;;;;;4981193;28;20470;-82
2023/12/05 06:35:48;;;;;;;5.27;4.83;;;20.90;54.70;;;;;;4984505;28;20450;-79
2023/12/05 06:38:17;;;;;;;5.97;5.40;;;20.90;54.60;;;;;;4977917;28;20457;-80
2023/12/05 06:40:45;;;;;;;6.80;6.10;;;20.90;54.60;;;;;;4984283;28;20473;-79
2023/12/05 06:43:13;;;;;;;6.37;5.20;;;20.90;53.70;;;;;;4989116;28;20454;-81
2023/12/05 06:45:43;;;;;;;6.20;5.33;;;20.90;54.20;;;;;;4985892;28;22545;-80
2023/12/05 06:48:12;;;;;;;8.03;7.00;;;20.90;54.20;;;;;;4985750;28;20473;-78
2023/12/05 06:50:45;;;;;;;6.37;5.70;;;20.90;53.40;;;;;;4980254;28;20466;-82
2023/12/05 06:53:13;;;;;;;9.70;6.30;;;20.90;53.90;;;;;;4992077;28;20998;-79
2023/12/05 06:55:42;;;;;;;10.00;7.50;;;20.90;54.00;;;;;;4993562;28;20461;-82
2023/12/05 06:58:10;;;;;;;7.90;6.57;;;20.90;53.00;;;;;;4987470;28;20448;-81
2023/12/05 07:00:38;;;;;;;7.37;5.83;;;20.90;52.70;;;;;;5002864;28;20462;-79
2023/12/05 07:03:08;;;;;;;9.37;7.07;;;20.80;52.70;;;;;;4985573;28;20490;-79
2023/12/05 07:05:36;;;;;;;6.90;6.20;;;20.90;52.40;;;;;;4990135;28;20485;-78
2023/12/05 07:08:06;;;;;;;7.00;6.30;;;20.80;52.30;;;;;;4994258;28;20459;-79
2023/12/05 07:10:35;;;;;;;6.20;5.60;;;20.80;52.70;;;;;;4993870;28;20459;-79
2023/12/05 07:13:03;;;;;;;5.53;5.03;;;20.80;53.40;;;;;;4991671;28;20952;-78
2023/12/05 07:15:31;;;;;;;6.93;5.83;;;20.80;53.40;;;;;;4993002;28;20471;-79
2023/12/05 07:17:59;;;;;;;5.73;5.23;;;20.80;52.90;;;;;;4996478;28;20462;-79
2023/12/05 07:20:29;;;;;;;5.53;4.90;;;20.80;52.80;;;;;;4998533;28;20888;-80
2023/12/05 07:22:56;;;;;;;7.40;5.50;;;20.80;52.70;;;;;;4991506;28;20495;-79
2023/12/05 07:25:24;;;;;;;5.67;5.17;;;20.90;52.40;;;;;;4998755;28;21134;-78
2023/12/05 07:27:53;;;;;;;7.30;5.40;;;20.90;52.50;;;;;;4992261;28;20565;-82
2023/12/05 07:30:21;;;;;;;5.73;5.20;;;20.90;52.50;;;;;;4990852;28;20844;-78
2023/12/05 07:32:49;;;;;;;5.83;4.90;;;20.90;53.00;;;;;;4998731;28;20468;-77
2023/12/05 07:35:18;;;;;;;5.47;4.90;;;20.90;53.40;;;;;;5000547;28;20783;-81
2023/12/05 07:37:47;;;;;;;6.80;5.63;;;20.80;53.20;;;;;;5001150;28;20815;-77
2023/12/05 07:40:16;;;;;;;5.53;4.80;;;20.80;53.00;;;;;;4997464;28;20458;-77
2023/12/05 07:42:45;;;;;;;6.13;5.53;;;20.80;53.20;;;;;;4993610;28;20460;-79
2023/12/05 07:45:13;;;;;;;7.43;6.70;;;20.80;52.70;;;;;;4994694;28;20462;-76
2023/12/05 07:47:43;;;;;;;6.90;5.50;;;20.80;52.70;;;;;;4988602;28;20859;-78
2023/12/05 07:50:13;;;;;;;7.60;6.90;;;20.80;52.30;;;;;;5000546;28;20544;-78
2023/12/05 07:52:42;;;;;;;7.00;6.40;;;20.80;51.80;;;;;;5000715;28;20457;-80
2023/12/05 07:55:12;;;;;;;5.90;5.30;;;20.80;51.70;;;;;;5000620;28;20930;-80
2023/12/05 07:57:40;;;;;;;4.97;4.57;;;20.80;51.80;;;;;;5000263;28;20477;-80
2023/12/05 08:00:15;;;;;;;6.13;5.50;;;20.80;51.90;;;;;;4993606;28;21405;-80
2023/12/05 08:02:44;;;;;;;5.37;4.87;;;20.80;51.50;;;;;;4994827;28;20450;-78
2023/12/05 08:05:12;;;;;;;5.07;4.33;;;20.80;51.60;;;;;;4996183;28;20474;-79
2023/12/05 08:07:40;;;;;;;6.60;5.90;;;20.80;51.90;;;;;;4994349;28;20480;-77
2023/12/05 08:10:10;;;;;;;5.33;4.80;;;20.80;51.20;;;;;;4993042;28;20959;-79
2023/12/05 08:12:40;;;;;;;5.70;5.03;;;20.70;50.90;;;;;;4992248;28;20447;-79
2023/12/05 08:15:09;;;;;;;7.80;5.70;;;20.70;51.00;;;;;;4983745;28;20464;-78
2023/12/05 08:17:37;;;;;;;5.37;4.87;;;20.70;50.70;;;;;;4991194;28;21064;-78
2023/12/05 08:20:07;;;;;;;5.30;4.80;;;20.70;50.90;;;;;;4992884;28;20560;-77
2023/12/05 08:22:35;;;;;;;6.23;5.57;;;20.60;50.70;;;;;;4991611;28;20533;-78
2023/12/05 08:25:07;;;;;;;8.40;5.20;;;20.60;50.70;;;;;;4989988;28;20493;-78
2023/12/05 08:27:36;;;;;;;5.70;4.97;;;20.60;50.70;;;;;;4989462;28;20475;-77
2023/12/05 08:30:07;;;;;;;8.17;5.30;;;20.60;51.20;;;;;;4990118;28;20947;-81
2023/12/05 08:32:36;;;;;;;5.27;4.77;;;20.60;51.00;;;;;;4989959;28;20852;-78
2023/12/05 08:35:04;;;;;;;6.00;5.40;;;20.60;50.90;;;;;;4991665;28;20951;-78
2023/12/05 08:37:34;;;;;;;5.37;4.87;;;20.70;50.90;;;;;;4991066;28;20574;-78
2023/12/05 08:40:02;;;;;;;6.03;5.47;;;20.70;51.00;;;;;;4990021;28;20461;-78
2023/12/05 08:42:30;;;;;;;5.40;4.17;;;20.70;51.00;;;;;;5010915;28;20806;-79
2023/12/05 08:44:59;;;;;;;4.90;4.40;;;20.70;51.00;;;;;;4992425;28;20453;-77
2023/12/05 08:47:29;;;;;;;4.40;4.00;;;20.70;50.90;;;;;;4984649;28;21059;-78
2023/12/05 08:49:57;;;;;;;6.70;4.50;;;20.70;51.20;;;;;;4982006;28;20482;-78
2023/12/05 08:52:25;;;;;;;5.67;5.17;;;20.80;51.20;;;;;;4992264;28;20477;-78
2023/12/05 08:54:53;;;;;;;4.97;4.00;;;20.80;50.90;;;;;;4984792;28;20452;-78
2023/12/05 08:57:22;;;;;;;4.70;4.30;;;20.80;50.80;;;;;;4990958;28;20453;-78
2023/12/05 08:59:51;;;;;;;5.27;4.53;;;20.80;50.80;;;;;;4990139;28;20973;-79
2023/12/05 09:02:20;;;;;;;4.93;4.53;;;20.80;50.80;;;;;;4990534;28;20453;-77
2023/12/05 09:04:49;;;;;;;4.60;4.20;;;20.80;50.70;;;;;;4991447;28;20486;-77
2023/12/05 09:07:18;;;;;;;5.30;4.80;;;20.80;50.90;;;;;;4990378;28;20471;-80
2023/12/05 09:09:46;;;;;;;6.60;4.80;;;20.80;50.80;;;;;;4993526;28;20461;-78
2023/12/05 09:12:15;;;;;;;4.90;4.40;;;20.90;50.80;;;;;;4989805;28;20468;-78
2023/12/05 09:14:43;;;;;;;6.57;4.60;;;20.90;50.50;;;;;;4989874;28;20509;-81
2023/12/05 09:17:12;;;;;;;5.87;4.40;;;20.90;50.40;;;;;;4989037;28;20518;-79
2023/12/05 09:19:40;;;;;;;6.90;5.60;;;20.90;50.20;;;;;;4997293;28;20452;-79
2023/12/05 09:22:10;;;;;;;5.00;4.50;;;20.90;50.10;;;;;;4998425;28;21062;-83
2023/12/05 09:24:38;;;;;;;6.20;4.77;;;20.90;50.10;;;;;;4980931;28;20462;-79
2023/12/05 09:27:07;;;;;;;7.20;4.93;;;20.90;50.10;;;;;;4990662;28;20467;-79
2023/12/05 09:29:35;;;;;;;6.10;4.87;;;21.00;50.30;;;;;;4998206;28;20456;-84
2023/12/05 09:32:17;;;;;;;4.53;4.13;;;21.00;50.20;;;;;;4995140;28;20515;-79
2023/12/05 09:34:47;;;;;;;4.53;4.00;;;21.00;50.60;;;;;;4990817;28;20464;-80
2023/12/05 09:37:17;;;;;;;5.10;4.13;;;21.10;50.70;;;;;;4989610;28;20466;-78
2023/12/05 09:39:45;;;;;;;4.40;4.00;;;21.10;50.70;;;;;;4990081;28;20452;-81
2023/12/05 09:42:14;;;;;;;4.83;4.43;;;21.10;50.80;;;;;;4992523;28;20451;-78
2023/12/05 09:44:46;;;;;;;4.30;3.90;;;21.20;50.80;;;;;;4990894;28;20444;-85
2023/12/05 09:47:19;;;;;;;4.60;4.20;;;21.20;50.90;;;;;;4989702;28;20447;-77
2023/12/05 09:49:48;;;;;;;5.20;4.60;;;21.30;50.70;;;;;;4991127;28;20917;-79
2023/12/05 09:52:18;;;;;;;4.90;4.50;;;21.30;50.70;;;;;;4990661;28;20491;-83
2023/12/05 09:54:47;;;;;;;4.40;4.00;;;21.30;50.80;;;;;;4990480;28;20451;-79
2023/12/05 09:57:16;;;;;;;3.93;3.63;;;21.40;50.70;;;;;;4990729;28;20452;-78
2023/12/05 09:59:44;;;;;;;4.03;3.73;;;21.40;50.60;;;;;;4991292;28;20514;-78
2023/12/05 10:02:15;;;;;;;4.00;3.60;;;21.40;50.70;;;;;;4988176;28;20814;-78
2023/12/05 10:04:45;;;;;;;3.80;3.50;;;21.40;50.70;;;;;;4990632;28;20483;-80
2023/12/05 10:07:14;;;;;;;4.83;4.40;;;21.40;50.70;;;;;;4990940;28;21007;-78
2023/12/05 10:09:44;;;;;;;5.17;4.23;;;21.40;50.70;;;;;;4995882;28;20451;-78
2023/12/05 10:12:13;;;;;;;3.80;3.33;;;21.40;50.70;;;;;;4990591;28;20882;-80
2023/12/05 10:14:43;;;;;;;4.90;4.00;;;21.30;50.80;;;;;;4990203;28;20929;-81
2023/12/05 10:17:11;;;;;;;4.20;3.57;;;21.30;50.80;;;;;;4989591;28;20824;-78
2023/12/05 10:19:40;;;;;;;3.77;3.47;;;21.30;50.80;;;;;;4993551;28;20492;-79
2023/12/05 10:22:08;;;;;;;3.33;3.03;;;21.30;50.80;;;;;;4987740;28;20491;-80
2023/12/05 10:24:40;;;;;;;3.80;3.50;;;21.40;51.00;;;;;;5002426;28;20463;-80
2023/12/05 10:27:10;;;;;;;3.60;3.00;;;21.40;51.10;;;;;;4993702;28;20801;-81
2023/12/05 10:29:40;;;;;;;3.63;3.33;;;21.50;51.10;;;;;;4994554;28;20509;-79
2023/12/05 10:32:12;;;;;;;3.60;3.30;;;21.60;51.00;;;;;;4991782;28;20452;-84
2023/12/05 10:34:48;;;;;;;3.37;3.10;;;21.70;50.80;;;;;;4994105;28;20453;-82
2023/12/05 10:37:20;;;;;;;4.27;3.20;;;21.80;50.60;;;;;;4989450;28;20464;-77
2023/12/05 10:39:49;;;;;;;4.00;2.80;;;21.90;50.60;;;;;;4993439;28;20461;-78
2023/12/05 10:42:20;;;;;;;3.63;2.67;;;21.90;50.80;;;;;;4993384;28;20458;-77
2023/12/05 10:44:48;;;;;;;2.80;2.50;;;22.00;50.70;;;;;;4992387;28;20504;-77
2023/12/05 10:47:17;;;;;;;3.97;3.57;;;22.10;50.40;;;;;;4993088;28;20507;-79
2023/12/05 10:49:49;;;;;;;4.40;2.30;;;22.30;50.40;;;;;;4990726;28;20487;-78
2023/12/05 10:52:17;;;;;;;3.07;2.77;;;22.40;50.00;;;;;;5001689;28;20819;-78
2023/12/05 10:54:45;;;;;;;3.17;2.97;;;22.50;49.80;;;;;;5002176;28;20450;-81
2023/12/05 10:57:14;;;;;;;2.80;2.60;;;22.60;49.90;;;;;;4998875;28;20457;-79
2023/12/05 10:59:44;;;;;;;3.40;3.10;;;22.70;49.80;;;;;;4998499;28;20523;-79
2023/12/05 11:02:14;;;;;;;2.93;2.73;;;22.70;49.80;;;;;;4990287;28;20478;-78
2023/12/05 11:04:44;;;;;;;2.80;2.60;;;22.80;49.70;;;;;;4990086;28;20481;-83
2023/12/05 11:07:12;;;;;;;3.23;2.93;;;22.90;49.30;;;;;;4983897;28;20472;-79
2023/12/05 11:09:43;;;;;;;3.40;3.10;;;22.90;49.30;;;;;;5000192;28;21047;-79
2023/12/05 11:12:13;;;;;;;3.27;2.97;;;22.90;49.60;;;;;;5000600;28;20457;-80
2023/12/05 11:14:47;;;;;;;2.60;2.30;;;23.00;49.20;;;;;;4988569;28;20454;-79
2023/12/05 11:17:20;;;;;;;4.87;2.70;;;23.00;49.00;;;;;;4983913;28;20490;-80
2023/12/05 11:20:03;;;;;;;2.53;2.33;;;23.10;49.00;;;;;;4992622;28;20468;-77
2023/12/05 11:22:41;;;;;;;3.00;2.80;;;23.10;49.10;;;;;;4997948;28;20461;-78
2023/12/05 11:25:34;;;;;;;2.40;2.20;;;23.10;48.90;;;;;;4987476;28;20933;-78
2023/12/05 11:28:15;;;;;;;2.80;2.30;;;23.20;48.70;;;;;;5002930;28;20445;-77
2023/12/05 11:31:01;;;;;;;3.30;2.87;;;23.20;48.70;;;;;;4992918;28;20834;-82
2023/12/05 11:33:47;;;;;;;2.53;2.30;;;23.30;48.80;;;;;;4993493;28;20476;-76
2023/12/05 11:36:28;;;;;;;2.47;2.30;;;23.30;48.80;;;;;;4989999;28;20496;-82
2023/12/05 11:38:59;;;;;;;4.50;2.70;;;23.40;48.80;;;;;;4981614;28;20471;-78
2023/12/05 11:41:28;;;;;;;3.40;2.57;;;23.40;48.90;;;;;;5000949;28;20468;-79
2023/12/05 11:44:18;;;;;;;2.87;2.57;;;23.40;48.80;;;;;;4999420;28;20445;-80
2023/12/05 11:46:48;;;;;;;4.63;2.60;;;23.40;49.10;;;;;;4989293;28;20462;-80
2023/12/05 11:49:36;;;;;;;2.53;2.30;;;23.40;48.70;;;;;;4993807;28;20992;-79
2023/12/05 11:52:10;;;;;;;2.60;2.40;;;23.40;49.20;;;;;;4997814;28;20497;-84
2023/12/05 11:54:42;;;;;;;2.57;2.37;;;23.40;49.10;;;;;;4997358;28;20962;-80
2023/12/05 11:57:15;;;;;;;2.93;2.67;;;23.50;48.80;;;;;;4987942;28;20451;-78
2023/12/05 11:59:53;;;;;;;2.87;2.67;;;23.50;49.20;;;;;;4983154;28;20460;-81
2023/12/05 12:02:44;;;;;;;2.00;1.87;;;23.50;48.80;;;;;;4989278;28;20528;-81
2023/12/05 12:05:12;;;;;;;2.60;2.40;;;23.50;48.80;;;;;;4981869;28;20475;-81
2023/12/05 12:07:45;;;;;;;2.40;2.30;;;23.50;48.50;;;;;;5006735;28;20821;-79
2023/12/05 12:10:17;;;;;;;2.00;1.90;;;23.50;48.70;;;;;;4993130;28;20480;-79
2023/12/05 12:12:48;;;;;;;2.60;2.40;;;23.40;48.70;;;;;;4990140;28;20481;-85
2023/12/05 12:15:19;;;;;;;3.30;1.93;;;23.30;48.60;;;;;;5001555;28;20489;-81
2023/12/05 12:17:50;;;;;;;2.90;2.40;;;23.20;48.70;;;;;;4992505;28;20457;-83
2023/12/05 12:20:19;;;;;;;2.50;2.30;;;23.10;49.00;;;;;;4991705;28;20461;-80
2023/12/05 12:22:50;;;;;;;2.00;1.90;;;23.20;49.00;;;;;;4998608;28;20787;-80
2023/12/05 12:25:19;;;;;;;2.50;2.30;;;23.20;48.90;;;;;;4988806;28;20529;-80
2023/12/05 12:27:47;;;;;;;2.20;2.10;;;23.30;49.10;;;;;;4990530;28;20513;-80
2023/12/05 12:30:17;;;;;;;2.10;2.00;;;23.30;48.90;;;;;;4990085;28;20477;-81
2023/12/05 12:32:56;;;;;;;2.93;2.47;;;23.30;49.10;;;;;;4995571;28;20475;-81
2023/12/05 12:35:27;;;;;;;5.07;3.07;;;23.40;49.20;;;;;;4990040;28;20449;-81
2023/12/05 12:37:57;;;;;;;7.27;4.47;;;23.40;49.00;;;;;;4991464;28;20949;-80
2023/12/05 12:40:25;;;;;;;10.90;5.67;;;23.40;49.10;;;;;;4995342;28;20471;-79
2023/12/05 12:42:55;;;;;;;11.00;6.60;;;23.40;49.20;;;;;;4989768;28;20466;-80
2023/12/05 12:45:26;;;;;;;9.00;5.60;;;23.40;49.20;;;;;;4982304;28;20550;-81
2023/12/05 12:47:56;;;;;;;12.20;6.70;;;23.40;49.10;;;;;;4989144;28;20461;-82
2023/12/05 12:50:24;;;;;;;11.73;6.70;;;23.20;48.60;;;;;;4986473;28;20477;-80
2023/12/05 12:52:54;;;;;;;15.93;8.20;;;23.10;48.60;;;;;;4985543;28;20464;-79
2023/12/05 12:55:23;;;;;;;14.90;8.50;;;23.00;48.70;;;;;;4989167;28;20821;-80
2023/12/05 12:57:53;;;;;;;15.50;8.37;;;22.90;48.90;;;;;;4988459;28;20484;-81